Dundee, Illinois
Current Conditions -  °F | °C
As of 6:52 PM on Friday 19 Dec 2014 (Local Time) from KDPA Reporting Station
Overcast Overcast  
Wind Chill: 23°   Ceiling: 2600
Heat Index: 29°   Visibility: 10mi
Dew Point: 23°   Wind: 6mph
Humidity: 78%   Direction: 350°N
Pressure: 30.27"   Gusts: NA
Location:  42.1°N, 88.29°W
Report Text: KDPA 200052Z 35005KT 10SM OVC026 M02/M05 A3027 RMK AO2 SLP261 T10171050
Loading
Personal Weather Stations






























Interactive Weather Map New forecast layout! Learn more

10-Day Weather Forecast

Advertisements
Track Severe Weather on mobile